Time;durP1;ratioP1;P1;durP2;ratioP2;P2;SDS_P1;SDS_P2;PMS_P1;PMS_P2;Temp;Humidity;BMP_temperature;BMP_pressure;BME280_temperature;BME280_humidity;BME280_pressure;Samples;Min_cycle;Max_cycle;Signal;HPM_P1;HPM_P2
2021/06/05 00:02:00;;;;;;;2.55;1.50;;;22.00;87.70;;;;;;5096134;28;20497;-76
2021/06/05 00:04:30;;;;;;;2.70;1.77;;;22.00;87.60;;;;;;5099786;28;20043;-77
2021/06/05 00:06:59;;;;;;;3.20;1.50;;;22.00;87.50;;;;;;5097547;28;20042;-77
2021/06/05 00:09:29;;;;;;;2.47;1.40;;;22.00;87.40;;;;;;5114510;27;20142;-76
2021/06/05 00:12:06;;;;;;;1.90;1.27;;;22.00;87.10;;;;;;5099118;28;20039;-76
2021/06/05 00:14:46;;;;;;;3.40;1.45;;;21.90;87.20;;;;;;5101841;27;20043;-76
2021/06/05 00:17:25;;;;;;;3.78;1.70;;;21.90;87.40;;;;;;5099467;28;20597;-76
2021/06/05 00:19:59;;;;;;;4.03;1.80;;;21.90;87.80;;;;;;5105804;28;20135;-77
2021/06/05 00:22:28;;;;;;;3.10;2.10;;;21.70;88.50;;;;;;5099631;28;20047;-76
2021/06/05 00:24:58;;;;;;;3.33;2.08;;;21.90;88.40;;;;;;5098641;28;20383;-76
2021/06/05 00:27:28;;;;;;;4.13;1.92;;;21.90;88.30;;;;;;5096861;28;20036;-77
2021/06/05 00:30:07;;;;;;;4.05;2.08;;;21.80;88.40;;;;;;5084642;28;20043;-76
2021/06/05 00:32:37;;;;;;;3.20;2.00;;;21.90;88.60;;;;;;5100286;28;20102;-76
2021/06/05 00:35:08;;;;;;;5.57;2.13;;;21.90;88.80;;;;;;5103784;27;20686;-75
2021/06/05 00:37:39;;;;;;;4.18;1.88;;;21.80;89.10;;;;;;5106928;27;20489;-76
2021/06/05 00:40:10;;;;;;;4.35;2.00;;;21.70;89.50;;;;;;5101994;27;20039;-75
2021/06/05 00:42:40;;;;;;;2.97;1.80;;;21.70;89.70;;;;;;5103004;27;20039;-76
2021/06/05 00:45:15;;;;;;;5.07;2.00;;;21.60;90.10;;;;;;5104174;27;20040;-76
2021/06/05 00:47:45;;;;;;;3.28;2.00;;;21.60;90.40;;;;;;5109180;27;20089;-76
2021/06/05 00:50:14;;;;;;;2.35;1.92;;;21.60;90.30;;;;;;5095954;27;20075;-75
2021/06/05 00:52:45;;;;;;;4.53;2.08;;;21.70;90.20;;;;;;5100681;28;20561;-75
2021/06/05 00:55:18;;;;;;;3.13;1.98;;;21.60;90.50;;;;;;5087353;28;20051;-75
2021/06/05 00:57:48;;;;;;;3.25;2.00;;;21.50;90.60;;;;;;5103785;27;20138;-75
2021/06/05 01:00:29;;;;;;;2.97;1.60;;;21.60;90.70;;;;;;5085722;28;20048;-76
2021/06/05 01:03:01;;;;;;;2.72;1.77;;;21.60;90.60;;;;;;5103417;27;20056;-75
2021/06/05 01:05:33;;;;;;;4.85;2.38;;;21.70;90.40;;;;;;5110217;27;20081;-75
2021/06/05 01:08:17;;;;;;;3.03;1.80;;;21.70;90.50;;;;;;5097182;28;20067;-76
2021/06/05 01:10:55;;;;;;;6.47;2.08;;;21.60;90.60;;;;;;5104467;27;20570;-75
2021/06/05 01:13:40;;;;;;;3.35;1.73;;;21.70;90.60;;;;;;5099266;27;20668;-75
2021/06/05 01:16:17;;;;;;;4.20;1.95;;;21.70;90.40;;;;;;5118442;27;20520;-75
2021/06/05 01:18:52;;;;;;;3.60;1.85;;;21.70;90.30;;;;;;5083625;28;20421;-76
2021/06/05 01:21:38;;;;;;;4.28;1.90;;;21.60;90.30;;;;;;5101630;27;20085;-75
2021/06/05 01:24:24;;;;;;;3.17;2.10;;;21.60;90.40;;;;;;5120308;27;20793;-76
2021/06/05 01:27:33;;;;;;;3.80;1.85;;;21.50;90.80;;;;;;5104382;27;20051;-75
2021/06/05 01:30:09;;;;;;;6.10;1.92;;;21.40;91.10;;;;;;5105098;27;20104;-75
2021/06/05 01:32:39;;;;;;;2.42;1.83;;;21.20;91.70;;;;;;5085293;28;20477;-75
2021/06/05 01:35:12;;;;;;;3.85;2.08;;;21.10;92.40;;;;;;5103035;27;20043;-75
2021/06/05 01:37:43;;;;;;;3.35;1.77;;;21.20;92.10;;;;;;5103765;27;20047;-76
2021/06/05 01:40:23;;;;;;;4.63;2.30;;;21.40;91.70;;;;;;5098549;28;20501;-76
2021/06/05 01:43:03;;;;;;;4.97;2.00;;;21.50;91.40;;;;;;5103864;27;20042;-76
2021/06/05 01:45:49;;;;;;;2.50;1.83;;;21.50;91.30;;;;;;5105430;27;20536;-76
2021/06/05 01:48:27;;;;;;;5.82;2.60;;;21.40;91.40;;;;;;5099492;28;20059;-76
2021/06/05 01:51:07;;;;;;;4.10;2.22;;;21.50;91.00;;;;;;5084873;28;20447;-76
2021/06/05 01:53:44;;;;;;;3.88;1.90;;;21.50;91.20;;;;;;5097440;28;20039;-76
2021/06/05 01:56:21;;;;;;;3.83;1.92;;;21.50;91.00;;;;;;5099615;28;20541;-76
2021/06/05 01:58:55;;;;;;;2.90;1.70;;;21.60;90.70;;;;;;5096350;27;20055;-76
2021/06/05 02:01:34;;;;;;;2.25;1.90;;;21.50;90.80;;;;;;5100712;28;20045;-76
2021/06/05 02:04:08;;;;;;;4.93;1.80;;;21.50;90.90;;;;;;5101973;27;20040;-76
2021/06/05 02:06:52;;;;;;;3.58;2.10;;;21.60;90.80;;;;;;5096133;28;20059;-76
2021/06/05 02:09:25;;;;;;;4.22;2.13;;;21.30;91.60;;;;;;5100285;27;20087;-76
2021/06/05 02:12:16;;;;;;;3.72;2.42;;;21.20;92.40;;;;;;5087242;27;20050;-76
2021/06/05 02:14:58;;;;;;;3.60;1.90;;;21.00;93.80;;;;;;5087226;28;20932;-76
2021/06/05 02:17:32;;;;;;;3.58;2.13;;;21.10;93.90;;;;;;5099146;28;20289;-76
2021/06/05 02:20:08;;;;;;;5.00;2.15;;;21.20;93.60;;;;;;5097236;27;20043;-77
2021/06/05 02:22:46;;;;;;;5.00;2.20;;;21.30;93.40;;;;;;5100256;28;20044;-76
2021/06/05 02:25:24;;;;;;;4.78;2.35;;;21.50;92.70;;;;;;5101654;27;20044;-76
2021/06/05 02:28:00;;;;;;;4.45;1.75;;;21.30;92.50;;;;;;5080838;27;20126;-76
2021/06/05 02:30:34;;;;;;;6.82;2.30;;;21.20;93.00;;;;;;5101347;27;20051;-76
2021/06/05 02:33:05;;;;;;;2.72;1.92;;;21.30;92.60;;;;;;5098810;28;20248;-76
2021/06/05 02:35:44;;;;;;;4.32;2.13;;;21.30;92.50;;;;;;5118075;27;20047;-76
2021/06/05 02:38:21;;;;;;;4.47;2.03;;;21.30;92.50;;;;;;5095552;28;20036;-76
2021/06/05 02:40:54;;;;;;;3.53;2.00;;;21.30;92.30;;;;;;5100276;28;20524;-76
2021/06/05 02:43:28;;;;;;;4.03;2.33;;;21.10;93.10;;;;;;5097617;27;20247;-76
2021/06/05 02:46:07;;;;;;;3.90;2.38;;;21.10;93.90;;;;;;5100004;27;20413;-76
2021/06/05 02:48:45;;;;;;;5.63;2.40;;;21.10;93.70;;;;;;5095826;28;20531;-76
2021/06/05 02:51:25;;;;;;;4.57;2.20;;;21.10;93.70;;;;;;5096124;28;20119;-76
2021/06/05 02:53:55;;;;;;;2.95;1.88;;;21.10;93.70;;;;;;5097062;28;20579;-76
2021/06/05 02:56:26;;;;;;;6.38;2.20;;;21.20;93.50;;;;;;5103632;27;20039;-76
2021/06/05 02:58:59;;;;;;;4.30;2.25;;;21.10;93.80;;;;;;5099666;27;20043;-76
2021/06/05 03:01:37;;;;;;;3.53;2.53;;;20.90;94.70;;;;;;5100653;27;20492;-76
2021/06/05 03:04:07;;;;;;;5.75;2.60;;;20.70;95.70;;;;;;5084322;28;20432;-76
2021/06/05 03:06:37;;;;;;;4.10;2.33;;;20.80;95.80;;;;;;5096641;27;20031;-76
2021/06/05 03:09:08;;;;;;;3.45;2.65;;;21.00;95.50;;;;;;5099014;28;20139;-76
2021/06/05 03:11:39;;;;;;;6.20;2.65;;;21.00;95.60;;;;;;5116770;27;20043;-76
2021/06/05 03:14:09;;;;;;;4.10;2.50;;;21.10;95.50;;;;;;5099876;27;20050;-76
2021/06/05 03:16:41;;;;;;;5.68;2.63;;;21.20;95.20;;;;;;5097760;27;20047;-76
2021/06/05 03:19:13;;;;;;;4.72;2.50;;;21.20;95.10;;;;;;5102388;27;20546;-75
2021/06/05 03:21:45;;;;;;;4.70;2.80;;;21.20;95.20;;;;;;5103814;27;20063;-76
2021/06/05 03:24:26;;;;;;;4.68;2.78;;;21.10;95.40;;;;;;5100315;28;20043;-76
2021/06/05 03:26:57;;;;;;;5.88;3.20;;;21.20;95.40;;;;;;5100579;27;20725;-76
2021/06/05 03:29:26;;;;;;;4.97;3.10;;;21.10;96.10;;;;;;5099633;27;20035;-76
2021/06/05 03:32:00;;;;;;;5.22;2.80;;;21.10;96.10;;;;;;5084800;27;20085;-76
2021/06/05 03:34:31;;;;;;;4.47;3.00;;;21.20;96.00;;;;;;5094836;28;20043;-76
2021/06/05 03:37:01;;;;;;;5.13;3.00;;;21.20;96.20;;;;;;5102671;27;20043;-76
2021/06/05 03:39:33;;;;;;;5.90;2.75;;;21.20;96.20;;;;;;5101461;27;20051;-76
2021/06/05 03:42:05;;;;;;;5.50;3.00;;;21.10;96.60;;;;;;5100082;27;20122;-76
2021/06/05 03:44:35;;;;;;;4.93;2.80;;;21.10;96.20;;;;;;5096222;28;20108;-77
2021/06/05 03:47:08;;;;;;;2.83;2.28;;;21.10;96.20;;;;;;5097279;27;20043;-77
2021/06/05 03:49:40;;;;;;;3.58;2.50;;;21.20;95.70;;;;;;5098590;27;20088;-76
2021/06/05 03:52:10;;;;;;;4.50;2.35;;;21.20;95.70;;;;;;5102465;27;20397;-76
2021/06/05 03:54:40;;;;;;;5.25;2.70;;;21.20;95.40;;;;;;5094603;28;20632;-76
2021/06/05 03:57:10;;;;;;;4.32;2.80;;;21.20;95.40;;;;;;5095879;28;20036;-76
2021/06/05 03:59:40;;;;;;;4.05;2.53;;;21.20;95.20;;;;;;5098269;27;20058;-76
2021/06/05 04:02:11;;;;;;;4.55;3.03;;;21.10;95.40;;;;;;5099800;27;20084;-76
2021/06/05 04:04:41;;;;;;;5.13;2.65;;;21.10;95.60;;;;;;5101074;28;20047;-76
2021/06/05 04:07:46;;;;;;;3.30;2.35;;;21.10;95.50;;;;;;5121384;27;20134;-76
2021/06/05 04:10:16;;;;;;;4.13;2.20;;;21.00;95.20;;;;;;5101786;27;20398;-76
2021/06/05 04:12:45;;;;;;;4.88;2.63;;;20.90;95.80;;;;;;5107256;27;20284;-75
2021/06/05 04:15:16;;;;;;;5.40;2.60;;;20.90;95.60;;;;;;5108969;27;20040;-76
2021/06/05 04:17:48;;;;;;;6.88;3.03;;;20.90;95.70;;;;;;5099158;27;20126;-76
2021/06/05 04:20:17;;;;;;;5.55;2.30;;;21.00;95.40;;;;;;5106369;27;20062;-76
2021/06/05 04:22:53;;;;;;;4.00;2.30;;;20.90;95.70;;;;;;5108084;27;20508;-75
2021/06/05 04:25:26;;;;;;;5.50;2.92;;;21.00;95.60;;;;;;5103458;27;20048;-76
2021/06/05 04:27:57;;;;;;;5.45;2.70;;;21.00;95.80;;;;;;5105476;27;20039;-76
2021/06/05 04:30:29;;;;;;;3.70;2.90;;;20.90;95.70;;;;;;5087463;27;20063;-76
2021/06/05 04:33:01;;;;;;;4.88;2.50;;;20.90;96.10;;;;;;5104426;27;20107;-76
2021/06/05 04:35:31;;;;;;;3.08;2.08;;;20.90;95.90;;;;;;5105489;27;20399;-76
2021/06/05 04:38:01;;;;;;;2.70;2.15;;;20.90;95.90;;;;;;5105018;27;20472;-75
2021/06/05 04:40:32;;;;;;;7.07;1.92;;;20.90;95.80;;;;;;5103056;27;20131;-76
2021/06/05 04:43:02;;;;;;;3.33;2.22;;;20.90;95.70;;;;;;5104042;27;20039;-74
2021/06/05 04:45:32;;;;;;;3.80;2.22;;;20.90;95.60;;;;;;5103051;27;20035;-76
2021/06/05 04:48:05;;;;;;;4.63;2.50;;;21.10;95.20;;;;;;5105227;27;20130;-76
2021/06/05 04:50:36;;;;;;;2.97;2.05;;;20.90;95.60;;;;;;5103384;28;20070;-76
2021/06/05 04:53:06;;;;;;;12.63;2.40;;;20.80;95.70;;;;;;5087076;28;20044;-76
2021/06/05 04:55:36;;;;;;;2.45;1.75;;;20.90;95.60;;;;;;5103373;27;20097;-76
2021/06/05 04:58:07;;;;;;;2.80;1.70;;;21.10;95.10;;;;;;5099549;27;20043;-76
2021/06/05 05:00:40;;;;;;;2.50;2.10;;;21.20;94.70;;;;;;5106124;27;20047;-76
2021/06/05 05:03:20;;;;;;;4.60;1.65;;;21.10;94.80;;;;;;5100356;27;20126;-76
2021/06/05 05:05:52;;;;;;;3.92;2.28;;;21.10;94.70;;;;;;5101104;27;20553;-75
2021/06/05 05:08:22;;;;;;;3.17;2.10;;;21.10;94.50;;;;;;5102472;28;20039;-76
2021/06/05 05:10:53;;;;;;;6.25;2.60;;;21.10;94.70;;;;;;5105192;27;20047;-76
2021/06/05 05:13:25;;;;;;;3.67;2.33;;;21.20;94.50;;;;;;5102172;27;20031;-76
2021/06/05 05:15:57;;;;;;;2.25;2.05;;;21.20;94.50;;;;;;5106107;27;20050;-76
2021/06/05 05:18:30;;;;;;;9.98;5.88;;;21.20;94.70;;;;;;5103147;27;20045;-76
2021/06/05 05:21:01;;;;;;;8.77;5.30;;;21.10;96.60;;;;;;5107463;27;20490;-75
2021/06/05 05:23:33;;;;;;;8.57;4.75;;;21.00;96.70;;;;;;5097401;28;20051;-76
2021/06/05 05:26:06;;;;;;;9.57;3.95;;;21.10;96.70;;;;;;5096999;27;20050;-76
2021/06/05 05:28:37;;;;;;;6.15;3.17;;;21.10;95.90;;;;;;5095492;28;20059;-76
2021/06/05 05:31:13;;;;;;;6.55;3.28;;;21.20;95.70;;;;;;5104242;27;20062;-76
2021/06/05 05:33:45;;;;;;;6.03;3.53;;;21.40;95.10;;;;;;5117692;27;20072;-76
2021/06/05 05:36:18;;;;;;;6.05;3.53;;;21.40;94.80;;;;;;5101683;27;20056;-76
2021/06/05 05:38:48;;;;;;;8.63;3.25;;;21.50;94.20;;;;;;5081482;28;20497;-76
2021/06/05 05:41:21;;;;;;;7.47;3.38;;;21.40;94.20;;;;;;5101254;27;20039;-76
2021/06/05 05:43:52;;;;;;;6.78;3.25;;;21.20;94.80;;;;;;5086291;28;20047;-76
2021/06/05 05:46:22;;;;;;;5.57;3.53;;;21.30;94.80;;;;;;5099911;27;20050;-75
2021/06/05 05:48:55;;;;;;;6.95;3.45;;;21.20;96.20;;;;;;5083692;28;20055;-76
2021/06/05 05:51:26;;;;;;;6.30;3.50;;;21.20;96.60;;;;;;5100637;27;20039;-78
2021/06/05 05:53:56;;;;;;;5.43;3.33;;;21.30;96.20;;;;;;5098206;27;20125;-77
2021/06/05 05:56:28;;;;;;;7.22;3.13;;;21.40;95.80;;;;;;5106099;27;20050;-79
2021/06/05 05:58:58;;;;;;;5.97;3.80;;;21.50;95.70;;;;;;5091431;28;20055;-78
2021/06/05 06:01:29;;;;;;;7.18;3.53;;;21.40;95.70;;;;;;5103108;27;20036;-78
2021/06/05 06:04:01;;;;;;;7.75;4.90;;;21.30;95.00;;;;;;5098960;28;20042;-77
2021/06/05 06:06:32;;;;;;;9.40;5.95;;;21.30;94.90;;;;;;5098070;28;20501;-75
2021/06/05 06:09:03;;;;;;;7.45;5.70;;;21.30;94.80;;;;;;5099206;28;20133;-76
2021/06/05 06:11:33;;;;;;;8.55;5.90;;;21.30;95.20;;;;;;5100358;27;20048;-76
2021/06/05 06:14:03;;;;;;;11.00;5.75;;;21.30;95.30;;;;;;5100187;27;20043;-75
2021/06/05 06:16:34;;;;;;;8.27;5.38;;;21.40;95.90;;;;;;5101222;27;20039;-76
2021/06/05 06:19:05;;;;;;;9.32;5.28;;;21.50;95.40;;;;;;5087452;27;20471;-76
2021/06/05 06:21:36;;;;;;;8.10;5.38;;;21.50;95.40;;;;;;5100252;27;20382;-76
2021/06/05 06:24:08;;;;;;;10.88;5.38;;;21.50;95.40;;;;;;5093614;27;20039;-77
2021/06/05 06:26:39;;;;;;;10.98;5.47;;;21.60;94.80;;;;;;5093284;28;20049;-77
2021/06/05 06:29:19;;;;;;;10.52;4.65;;;21.80;94.60;;;;;;5095678;27;20062;-76
2021/06/05 06:31:49;;;;;;;9.00;4.78;;;22.00;94.30;;;;;;5114828;27;20047;-77
2021/06/05 06:34:22;;;;;;;8.98;4.43;;;22.00;94.80;;;;;;5095048;27;20101;-77
2021/06/05 06:36:53;;;;;;;7.35;4.68;;;22.00;94.30;;;;;;5098564;27;20040;-76
2021/06/05 06:39:22;;;;;;;8.90;4.72;;;22.00;94.00;;;;;;5095049;28;20130;-76
2021/06/05 06:41:52;;;;;;;6.38;4.28;;;22.10;93.80;;;;;;5102936;27;20505;-76
2021/06/05 06:44:21;;;;;;;8.23;4.30;;;22.10;94.20;;;;;;5100035;28;20059;-76
2021/06/05 06:46:51;;;;;;;6.30;3.92;;;22.10;93.10;;;;;;5089766;28;20139;-76
2021/06/05 06:49:23;;;;;;;6.32;4.45;;;22.10;93.50;;;;;;5097808;28;20155;-76
2021/06/05 06:51:53;;;;;;;7.65;4.95;;;22.10;94.30;;;;;;5096693;28;20059;-76
2021/06/05 06:54:23;;;;;;;8.27;4.80;;;22.10;94.60;;;;;;5097587;27;20035;-77
2021/06/05 06:56:53;;;;;;;6.60;4.78;;;22.20;94.30;;;;;;5099088;27;20043;-77
2021/06/05 06:59:22;;;;;;;8.07;4.85;;;22.10;93.90;;;;;;5096690;27;20126;-76
2021/06/05 07:01:51;;;;;;;8.45;4.40;;;22.30;93.40;;;;;;5099195;28;20584;-76
2021/06/05 07:04:21;;;;;;;8.05;4.32;;;22.40;92.80;;;;;;5101865;27;20046;-77
2021/06/05 07:06:50;;;;;;;7.68;4.57;;;22.30;92.70;;;;;;5101155;28;20056;-76
2021/06/05 07:09:19;;;;;;;7.93;4.88;;;22.40;93.00;;;;;;5097257;28;20439;-76
2021/06/05 07:11:48;;;;;;;7.40;4.85;;;22.50;93.00;;;;;;5096647;27;20471;-76
2021/06/05 07:14:16;;;;;;;8.77;4.50;;;22.60;92.90;;;;;;5089190;28;20046;-76
2021/06/05 07:16:45;;;;;;;9.48;4.32;;;22.60;92.40;;;;;;5098687;28;20769;-76
2021/06/05 07:19:14;;;;;;;6.45;4.13;;;22.50;93.30;;;;;;5098130;28;20062;-77
2021/06/05 07:21:44;;;;;;;8.60;4.43;;;22.50;93.30;;;;;;5100658;28;20144;-77
2021/06/05 07:24:13;;;;;;;7.05;4.32;;;22.50;92.90;;;;;;5096086;28;20048;-76
2021/06/05 07:26:42;;;;;;;9.45;4.35;;;22.60;93.10;;;;;;5097362;27;20236;-77
2021/06/05 07:29:12;;;;;;;10.70;4.18;;;22.60;93.10;;;;;;5097933;27;20039;-76
2021/06/05 07:31:43;;;;;;;7.22;4.50;;;22.60;93.40;;;;;;5095547;27;20125;-76
2021/06/05 07:34:12;;;;;;;6.63;4.30;;;22.60;93.20;;;;;;5094526;28;20073;-76
2021/06/05 07:36:51;;;;;;;5.93;4.38;;;22.60;93.70;;;;;;5096599;28;20489;-76
2021/06/05 07:39:26;;;;;;;10.27;3.78;;;22.60;93.90;;;;;;5100091;27;20040;-75
2021/06/05 07:41:59;;;;;;;6.25;3.70;;;22.70;93.30;;;;;;5097505;27;20051;-77
2021/06/05 07:44:29;;;;;;;5.45;3.67;;;22.70;92.50;;;;;;5099026;27;20036;-77
2021/06/05 07:47:00;;;;;;;5.40;3.17;;;22.70;92.00;;;;;;5099761;27;20066;-77
2021/06/05 07:49:31;;;;;;;10.27;4.28;;;22.80;91.60;;;;;;5105489;27;20050;-76
2021/06/05 07:52:05;;;;;;;7.97;3.70;;;22.90;91.90;;;;;;5095141;27;20127;-76
2021/06/05 07:54:34;;;;;;;8.52;3.60;;;22.80;92.10;;;;;;5100347;27;20044;-76
2021/06/05 07:57:03;;;;;;;6.07;3.38;;;22.80;91.00;;;;;;5096435;28;20038;-77
2021/06/05 07:59:34;;;;;;;7.18;3.83;;;22.80;91.20;;;;;;5096248;28;20490;-76
2021/06/05 08:02:03;;;;;;;6.55;3.38;;;22.80;91.10;;;;;;5097659;28;20381;-76
2021/06/05 08:04:32;;;;;;;9.13;3.92;;;22.80;90.60;;;;;;5097370;28;20100;-76
2021/06/05 08:07:02;;;;;;;6.47;3.50;;;22.90;90.10;;;;;;5101549;28;20047;-76
2021/06/05 08:09:31;;;;;;;8.10;3.55;;;23.00;90.00;;;;;;5117872;27;20615;-76
2021/06/05 08:12:00;;;;;;;6.13;3.53;;;23.00;89.40;;;;;;5097013;28;20131;-76
2021/06/05 08:14:29;;;;;;;7.45;3.78;;;23.20;90.50;;;;;;5097376;28;20485;-77
2021/06/05 08:16:58;;;;;;;7.18;4.13;;;23.20;89.70;;;;;;5091526;28;20113;-76
2021/06/05 08:19:26;;;;;;;6.43;3.38;;;23.30;89.70;;;;;;5099831;28;20450;-76
2021/06/05 08:21:55;;;;;;;7.10;3.67;;;23.30;89.10;;;;;;5096949;28;20767;-77
2021/06/05 08:24:25;;;;;;;7.10;3.85;;;23.40;89.20;;;;;;5096564;28;20039;-77
2021/06/05 08:26:54;;;;;;;6.70;3.58;;;23.40;89.00;;;;;;5098241;28;20148;-76
2021/06/05 08:29:22;;;;;;;7.10;3.58;;;23.50;88.70;;;;;;5097102;28;20036;-77
2021/06/05 08:31:50;;;;;;;4.97;3.25;;;23.40;88.70;;;;;;5099745;28;20143;-76
2021/06/05 08:34:20;;;;;;;6.18;3.22;;;23.10;88.90;;;;;;5085725;28;20392;-76
2021/06/05 08:36:48;;;;;;;6.65;4.30;;;23.00;89.20;;;;;;5098978;28;20048;-76
2021/06/05 08:39:16;;;;;;;9.77;5.70;;;23.00;90.00;;;;;;5098919;28;20104;-76
2021/06/05 08:41:53;;;;;;;8.02;4.03;;;23.00;90.00;;;;;;5094551;28;20215;-76
2021/06/05 08:44:33;;;;;;;6.60;4.18;;;23.00;90.10;;;;;;5094202;28;20060;-76
2021/06/05 08:47:05;;;;;;;8.07;4.80;;;23.10;90.00;;;;;;5082047;28;20570;-76
2021/06/05 08:49:35;;;;;;;7.72;5.53;;;23.10;89.90;;;;;;5098072;28;20409;-76
2021/06/05 08:52:08;;;;;;;8.57;5.38;;;23.20;90.10;;;;;;5098250;28;20382;-76
2021/06/05 08:54:45;;;;;;;7.53;4.78;;;23.30;90.60;;;;;;5115879;27;20044;-76
2021/06/05 08:57:27;;;;;;;8.27;5.38;;;23.50;90.40;;;;;;5106085;27;20304;-76
2021/06/05 09:00:09;;;;;;;7.20;4.70;;;23.80;90.10;;;;;;5102316;27;20075;-76
2021/06/05 09:02:38;;;;;;;7.53;4.32;;;23.90;89.30;;;;;;5110881;27;20044;-76
2021/06/05 09:05:09;;;;;;;6.93;4.32;;;23.80;88.90;;;;;;5097654;28;20048;-76
2021/06/05 09:07:39;;;;;;;8.15;4.82;;;23.90;88.70;;;;;;5099333;27;20040;-76
2021/06/05 09:10:09;;;;;;;9.05;5.28;;;23.90;89.20;;;;;;5098497;28;20036;-76
2021/06/05 09:12:39;;;;;;;10.10;6.68;;;23.80;89.50;;;;;;5099502;27;20524;-76
2021/06/05 09:15:16;;;;;;;9.48;6.25;;;23.70;89.40;;;;;;5102580;27;20162;-76
2021/06/05 09:17:47;;;;;;;7.80;4.82;;;23.70;89.80;;;;;;5097177;27;20040;-76
2021/06/05 09:20:34;;;;;;;6.07;4.50;;;23.80;88.40;;;;;;5099230;27;20040;-76
2021/06/05 09:23:21;;;;;;;5.80;4.15;;;23.70;89.70;;;;;;5098434;27;20048;-77
2021/06/05 09:25:49;;;;;;;;;;;23.60;90.30;;;;;;5116544;27;20054;-76
2021/06/05 09:28:24;;;;;;;4.38;3.13;;;23.70;90.80;;;;;;5098707;27;19962;-76
2021/06/05 09:30:56;;;;;;;4.47;2.70;;;23.70;88.90;;;;;;5099065;27;20171;-76
2021/06/05 09:33:32;;;;;;;9.13;3.85;;;23.80;88.00;;;;;;5101647;27;20067;-77
2021/06/05 09:36:21;;;;;;;4.37;3.00;;;23.90;87.60;;;;;;5100100;27;20075;-76
2021/06/05 09:38:53;;;;;;;3.30;2.33;;;24.10;87.60;;;;;;5098432;27;20054;-76
2021/06/05 09:41:28;;;;;;;4.18;2.50;;;24.10;87.00;;;;;;5100878;27;20047;-76
2021/06/05 09:44:24;;;;;;;4.25;2.67;;;24.10;87.10;;;;;;5120657;27;20148;-76
2021/06/05 09:46:59;;;;;;;6.43;2.78;;;24.20;88.20;;;;;;5093420;28;20047;-76
2021/06/05 09:49:32;;;;;;;4.43;2.70;;;24.30;88.80;;;;;;5097521;27;20130;-77
2021/06/05 09:52:10;;;;;;;5.78;2.72;;;24.50;89.00;;;;;;5098891;27;20608;-77
2021/06/05 09:54:40;;;;;;;7.05;3.35;;;24.60;89.00;;;;;;5082308;28;20335;-76
2021/06/05 09:57:19;;;;;;;6.75;2.97;;;24.60;89.90;;;;;;5099528;27;20616;-76
2021/06/05 10:00:07;;;;;;;5.43;2.90;;;24.70;90.30;;;;;;5097396;27;20060;-77
2021/06/05 10:02:40;;;;;;;3.35;2.58;;;24.50;90.90;;;;;;5101134;28;21185;-76
2021/06/05 10:05:19;;;;;;;7.30;3.40;;;24.30;91.00;;;;;;5098030;28;20050;-76
2021/06/05 10:07:48;;;;;;;8.30;3.63;;;24.40;91.40;;;;;;5099730;28;20289;-76
2021/06/05 10:10:30;;;;;;;5.15;3.08;;;24.40;92.00;;;;;;5094969;27;20771;-76
2021/06/05 10:13:01;;;;;;;5.45;3.47;;;24.50;92.10;;;;;;5097614;27;20040;-76
2021/06/05 10:15:34;;;;;;;6.40;3.60;;;24.50;92.00;;;;;;5102175;27;20044;-76
2021/06/05 10:18:07;;;;;;;5.72;3.60;;;24.50;92.40;;;;;;5103118;28;20606;-76
2021/06/05 10:20:47;;;;;;;7.05;3.55;;;24.50;92.40;;;;;;5097905;28;20043;-76
2021/06/05 10:23:23;;;;;;;4.50;3.28;;;24.70;92.30;;;;;;5114929;27;20031;-76
2021/06/05 10:25:56;;;;;;;6.55;3.20;;;24.70;92.20;;;;;;5093504;28;20075;-76
2021/06/05 10:28:30;;;;;;;4.95;3.00;;;24.70;91.90;;;;;;5098270;27;20042;-77
2021/06/05 10:31:04;;;;;;;5.45;2.95;;;24.70;92.30;;;;;;5095187;28;20047;-76
2021/06/05 10:33:41;;;;;;;6.72;3.03;;;24.80;92.10;;;;;;5105445;27;20477;-77
2021/06/05 10:36:11;;;;;;;;;;;24.90;92.30;;;;;;5099000;27;20040;-76
2021/06/05 10:38:43;;;;;;;3.03;2.72;;;25.00;91.90;;;;;;5099842;27;19953;-76
2021/06/05 10:41:16;;;;;;;4.40;2.80;;;25.00;92.10;;;;;;5096565;27;20051;-77
2021/06/05 10:43:45;;;;;;;4.20;2.85;;;25.00;92.20;;;;;;5100080;27;20046;-76
2021/06/05 10:46:28;;;;;;;4.68;3.08;;;25.10;92.40;;;;;;5097916;27;20032;-77
2021/06/05 10:49:07;;;;;;;6.40;2.58;;;25.20;92.30;;;;;;5098859;28;20158;-76
2021/06/05 10:51:40;;;;;;;4.20;2.60;;;25.20;91.70;;;;;;5099431;28;20142;-77
2021/06/05 10:54:15;;;;;;;4.65;2.65;;;25.20;91.60;;;;;;5093645;28;20499;-76
2021/06/05 10:57:03;;;;;;;5.05;2.75;;;25.10;91.80;;;;;;5097011;27;20047;-76
2021/06/05 10:59:48;;;;;;;3.38;2.10;;;25.30;91.40;;;;;;5096209;27;20418;-76
2021/06/05 11:02:37;;;;;;;4.10;2.85;;;25.40;91.00;;;;;;5098722;27;20054;-77
2021/06/05 11:05:41;;;;;;;4.18;2.67;;;25.50;91.00;;;;;;5094322;28;20146;-77
2021/06/05 11:08:39;;;;;;;4.45;2.70;;;25.60;90.60;;;;;;5098052;27;20114;-77
2021/06/05 11:11:38;;;;;;;3.72;2.47;;;25.60;90.10;;;;;;5097769;27;20097;-76
2021/06/05 11:14:32;;;;;;;4.53;2.60;;;25.60;90.10;;;;;;5107870;27;20416;-76
2021/06/05 11:17:33;;;;;;;4.43;2.45;;;25.90;89.90;;;;;;5099057;27;20038;-77
2021/06/05 11:20:35;;;;;;;2.70;2.40;;;25.90;89.40;;;;;;5094677;28;20513;-77
2021/06/05 11:23:22;;;;;;;5.03;2.60;;;25.90;88.60;;;;;;5110983;27;20043;-77
2021/06/05 11:25:52;;;;;;;4.50;2.67;;;26.00;89.00;;;;;;5102171;27;20035;-76
2021/06/05 11:28:48;;;;;;;5.22;2.80;;;26.00;88.80;;;;;;5098636;27;20075;-77
2021/06/05 11:31:49;;;;;;;5.50;2.78;;;26.30;88.80;;;;;;5099671;28;20035;-77
2021/06/05 11:34:53;;;;;;;4.13;2.55;;;26.50;88.50;;;;;;5096316;27;20521;-77
2021/06/05 11:37:46;;;;;;;4.72;2.63;;;26.80;88.40;;;;;;5081890;28;20055;-77
2021/06/05 11:40:51;;;;;;;5.80;2.75;;;26.90;87.80;;;;;;5107653;27;20046;-77
2021/06/05 11:43:54;;;;;;;2.83;2.30;;;27.20;86.50;;;;;;5103427;27;20588;-78
2021/06/05 11:46:46;;;;;;;3.90;2.47;;;27.30;86.90;;;;;;5095862;28;20052;-77
2021/06/05 11:49:57;;;;;;;3.08;2.63;;;27.10;86.80;;;;;;5114302;27;20043;-77
2021/06/05 11:52:39;;;;;;;3.30;2.70;;;27.00;86.80;;;;;;5093621;27;20601;-77
2021/06/05 11:55:20;;;;;;;3.15;2.40;;;27.00;87.30;;;;;;5104303;27;20039;-78
2021/06/05 11:58:15;;;;;;;3.83;2.70;;;27.10;87.00;;;;;;5092485;28;20053;-77
2021/06/05 12:00:47;;;;;;;4.82;3.33;;;26.90;87.10;;;;;;5084292;28;20055;-77
2021/06/05 12:03:25;;;;;;;3.95;2.50;;;27.00;87.30;;;;;;5096983;28;20112;-77
2021/06/05 12:06:09;;;;;;;4.85;2.60;;;27.10;87.60;;;;;;5098935;28;20148;-77
2021/06/05 12:08:39;;;;;;;3.80;2.55;;;27.00;87.60;;;;;;5101958;28;20048;-77
2021/06/05 12:11:22;;;;;;;8.98;2.80;;;26.90;87.90;;;;;;5080455;28;20066;-76
2021/06/05 12:14:04;;;;;;;3.47;3.10;;;26.80;88.00;;;;;;5100833;28;20044;-76
2021/06/05 12:16:33;;;;;;;3.17;2.72;;;26.80;88.10;;;;;;5093884;28;20039;-76
2021/06/05 12:19:07;;;;;;;5.30;2.90;;;26.60;88.60;;;;;;5099606;28;20488;-77
2021/06/05 12:21:39;;;;;;;6.13;2.90;;;26.60;89.20;;;;;;5083663;28;20047;-76
2021/06/05 12:24:22;;;;;;;3.17;2.85;;;26.50;88.90;;;;;;5097987;28;20047;-76
2021/06/05 12:26:56;;;;;;;3.47;2.90;;;26.50;89.50;;;;;;5097320;28;20138;-77
2021/06/05 12:29:29;;;;;;;4.53;2.85;;;26.50;89.30;;;;;;5104281;27;20042;-76
2021/06/05 12:32:10;;;;;;;4.35;2.65;;;26.50;90.10;;;;;;5101899;27;20100;-76
2021/06/05 12:34:39;;;;;;;4.40;2.85;;;26.50;89.30;;;;;;5096870;28;21739;-77
2021/06/05 12:37:17;;;;;;;4.30;2.60;;;26.40;90.00;;;;;;5103647;27;20032;-76
2021/06/05 12:39:48;;;;;;;2.50;2.30;;;26.50;90.40;;;;;;5101230;28;20047;-76
2021/06/05 12:42:28;;;;;;;5.88;3.15;;;26.60;90.20;;;;;;5102080;27;20048;-76
2021/06/05 12:45:04;;;;;;;4.85;3.08;;;26.80;90.00;;;;;;5098824;27;20039;-77
2021/06/05 12:47:36;;;;;;;4.40;3.15;;;26.80;90.00;;;;;;5104170;27;20075;-75
2021/06/05 12:50:09;;;;;;;5.88;3.47;;;26.80;90.20;;;;;;5099089;28;20493;-77
2021/06/05 12:52:42;;;;;;;7.10;3.50;;;27.00;90.00;;;;;;5104656;27;20405;-77
2021/06/05 12:55:19;;;;;;;4.47;3.08;;;27.10;89.30;;;;;;5101307;28;20046;-77
2021/06/05 12:57:55;;;;;;;7.50;3.20;;;27.10;89.20;;;;;;5099487;28;20051;-77
2021/06/05 13:00:41;;;;;;;4.97;2.83;;;27.20;88.60;;;;;;5099142;27;20044;-77
2021/06/05 13:03:23;;;;;;;5.60;2.78;;;27.30;88.10;;;;;;5114317;27;20047;-77
2021/06/05 13:06:06;;;;;;;4.20;3.03;;;27.30;87.00;;;;;;5115556;27;20040;-77
2021/06/05 13:08:36;;;;;;;5.43;3.20;;;27.30;88.00;;;;;;5098147;27;20093;-77
2021/06/05 13:11:07;;;;;;;4.40;2.55;;;27.30;87.30;;;;;;5099764;27;20077;-77
2021/06/05 13:14:21;;;;;;;6.80;2.33;;;27.40;87.90;;;;;;5097828;27;20035;-77
2021/06/05 13:17:06;;;;;;;3.78;2.50;;;27.80;86.90;;;;;;5098621;27;20059;-77
2021/06/05 13:19:35;;;;;;;2.90;1.58;;;28.20;85.10;;;;;;5098837;27;20050;-78
2021/06/05 13:22:09;;;;;;;5.00;2.35;;;28.10;85.30;;;;;;5104679;27;20040;-77
2021/06/05 13:24:58;;;;;;;4.85;2.38;;;27.80;85.90;;;;;;5100495;27;20071;-77
2021/06/05 13:27:27;;;;;;;5.28;2.72;;;27.40;86.80;;;;;;5117811;27;20510;-77
2021/06/05 13:30:14;;;;;;;2.40;2.10;;;27.10;88.60;;;;;;5098035;28;20092;-77